sensor_id;sensor_type;location;lat;lon;timestamp;pressure;altitude;pressure_sealevel;temperature;humidity
19736;BME280;32064;49.310;8.646;2023-05-03T00:00:52;101449.75;;;13.09;62.61
19736;BME280;32064;49.310;8.646;2023-05-03T00:03:17;101452.69;;;13.04;62.74
19736;BME280;32064;49.310;8.646;2023-05-03T00:05:47;101457.97;;;13.04;62.33
19736;BME280;32064;49.310;8.646;2023-05-03T00:08:12;101460.03;;;12.99;63.26
19736;BME280;32064;49.310;8.646;2023-05-03T00:10:38;101461.84;;;12.98;61.85
19736;BME280;32064;49.310;8.646;2023-05-03T00:13:03;101468.34;;;12.93;61.77
19736;BME280;32064;49.310;8.646;2023-05-03T00:15:29;101464.03;;;12.92;62.77
19736;BME280;32064;49.310;8.646;2023-05-03T00:17:54;101457.13;;;12.89;63.21
19736;BME280;32064;49.310;8.646;2023-05-03T00:20:19;101463.25;;;12.90;62.43
19736;BME280;32064;49.310;8.646;2023-05-03T00:22:45;101459.97;;;12.86;63.06
19736;BME280;32064;49.310;8.646;2023-05-03T00:25:11;101468.94;;;12.84;62.50
19736;BME280;32064;49.310;8.646;2023-05-03T00:27:36;101458.66;;;12.79;62.56
19736;BME280;32064;49.310;8.646;2023-05-03T00:30:03;101459.78;;;12.75;62.38
19736;BME280;32064;49.310;8.646;2023-05-03T00:32:28;101462.50;;;12.73;63.81
19736;BME280;32064;49.310;8.646;2023-05-03T00:34:54;101460.00;;;12.72;62.70
19736;BME280;32064;49.310;8.646;2023-05-03T00:37:20;101459.16;;;12.71;62.61
19736;BME280;32064;49.310;8.646;2023-05-03T00:39:46;101465.66;;;12.66;63.03
19736;BME280;32064;49.310;8.646;2023-05-03T00:42:11;101478.84;;;12.66;63.68
19736;BME280;32064;49.310;8.646;2023-05-03T00:44:37;101464.13;;;12.62;64.19
19736;BME280;32064;49.310;8.646;2023-05-03T00:47:02;101463.28;;;12.61;63.03
19736;BME280;32064;49.310;8.646;2023-05-03T00:49:29;101459.31;;;12.54;62.85
19736;BME280;32064;49.310;8.646;2023-05-03T00:51:55;101456.97;;;12.49;63.08
19736;BME280;32064;49.310;8.646;2023-05-03T00:54:25;101457.06;;;12.48;64.45
19736;BME280;32064;49.310;8.646;2023-05-03T00:56:51;101453.69;;;12.46;64.26
19736;BME280;32064;49.310;8.646;2023-05-03T00:59:17;101461.94;;;12.40;64.61
19736;BME280;32064;49.310;8.646;2023-05-03T01:01:44;101460.44;;;12.35;64.82
19736;BME280;32064;49.310;8.646;2023-05-03T01:04:12;101453.38;;;12.36;65.00
19736;BME280;32064;49.310;8.646;2023-05-03T01:09:20;101448.47;;;12.30;63.44
19736;BME280;32064;49.310;8.646;2023-05-03T01:12:13;101445.19;;;12.26;63.53
19736;BME280;32064;49.310;8.646;2023-05-03T01:14:58;101436.03;;;12.18;63.29
19736;BME280;32064;49.310;8.646;2023-05-03T01:17:28;101438.84;;;12.15;64.25
19736;BME280;32064;49.310;8.646;2023-05-03T01:20:05;101438.66;;;12.03;65.11
19736;BME280;32064;49.310;8.646;2023-05-03T01:22:46;101434.47;;;11.99;65.40
19736;BME280;32064;49.310;8.646;2023-05-03T01:25:14;101432.88;;;11.97;63.86
19736;BME280;32064;49.310;8.646;2023-05-03T01:27:41;101424.88;;;11.98;64.15
19736;BME280;32064;49.310;8.646;2023-05-03T01:30:11;101419.69;;;11.97;64.18
19736;BME280;32064;49.310;8.646;2023-05-03T01:33:13;101432.19;;;11.93;66.12
19736;BME280;32064;49.310;8.646;2023-05-03T01:36:01;101430.59;;;11.90;65.77
19736;BME280;32064;49.310;8.646;2023-05-03T01:38:35;101430.00;;;11.85;65.84
19736;BME280;32064;49.310;8.646;2023-05-03T01:41:05;101428.22;;;11.86;65.05
19736;BME280;32064;49.310;8.646;2023-05-03T01:43:34;101421.19;;;11.86;65.10
19736;BME280;32064;49.310;8.646;2023-05-03T01:46:00;101429.13;;;11.85;64.09
19736;BME280;32064;49.310;8.646;2023-05-03T01:48:26;101426.69;;;11.82;64.40
19736;BME280;32064;49.310;8.646;2023-05-03T01:50:51;101425.16;;;11.78;64.68
19736;BME280;32064;49.310;8.646;2023-05-03T01:53:16;101435.13;;;11.73;64.68
19736;BME280;32064;49.310;8.646;2023-05-03T01:55:42;101430.88;;;11.70;66.39
19736;BME280;32064;49.310;8.646;2023-05-03T01:58:07;101431.06;;;11.67;65.29
19736;BME280;32064;49.310;8.646;2023-05-03T02:00:33;101434.72;;;11.64;64.65
19736;BME280;32064;49.310;8.646;2023-05-03T02:02:58;101428.78;;;11.61;65.43
19736;BME280;32064;49.310;8.646;2023-05-03T02:05:24;101424.63;;;11.57;66.89
19736;BME280;32064;49.310;8.646;2023-05-03T02:07:50;101433.28;;;11.59;66.37
19736;BME280;32064;49.310;8.646;2023-05-03T02:10:16;101429.22;;;11.53;65.43
19736;BME280;32064;49.310;8.646;2023-05-03T02:12:43;101431.19;;;11.50;66.55
19736;BME280;32064;49.310;8.646;2023-05-03T02:15:09;101427.84;;;11.46;66.27
19736;BME280;32064;49.310;8.646;2023-05-03T02:17:36;101429.75;;;11.44;67.03
19736;BME280;32064;49.310;8.646;2023-05-03T02:20:02;101422.94;;;11.40;66.91
19736;BME280;32064;49.310;8.646;2023-05-03T02:22:30;101429.16;;;11.39;66.22
19736;BME280;32064;49.310;8.646;2023-05-03T02:24:56;101429.16;;;11.39;65.31
19736;BME280;32064;49.310;8.646;2023-05-03T02:27:23;101435.34;;;11.38;65.70
19736;BME280;32064;49.310;8.646;2023-05-03T02:29:48;101434.78;;;11.33;65.22
19736;BME280;32064;49.310;8.646;2023-05-03T02:32:14;101433.16;;;11.30;66.44
19736;BME280;32064;49.310;8.646;2023-05-03T02:34:39;101431.38;;;11.31;66.50
19736;BME280;32064;49.310;8.646;2023-05-03T02:37:05;101434.44;;;11.23;67.20
19736;BME280;32064;49.310;8.646;2023-05-03T02:39:31;101434.44;;;11.23;67.22
19736;BME280;32064;49.310;8.646;2023-05-03T02:41:56;101435.13;;;11.27;67.06
19736;BME280;32064;49.310;8.646;2023-05-03T02:44:22;101431.63;;;11.26;65.79
19736;BME280;32064;49.310;8.646;2023-05-03T02:46:47;101442.44;;;11.21;66.46
19736;BME280;32064;49.310;8.646;2023-05-03T02:49:12;101446.16;;;11.17;65.15
19736;BME280;32064;49.310;8.646;2023-05-03T02:51:38;101444.72;;;11.12;67.27
19736;BME280;32064;49.310;8.646;2023-05-03T02:54:03;101439.97;;;11.02;66.05
19736;BME280;32064;49.310;8.646;2023-05-03T02:56:28;101437.41;;;11.01;67.36
19736;BME280;32064;49.310;8.646;2023-05-03T02:58:54;101441.94;;;10.99;66.90
19736;BME280;32064;49.310;8.646;2023-05-03T03:01:20;101438.53;;;10.97;66.21
19736;BME280;32064;49.310;8.646;2023-05-03T03:03:46;101450.25;;;10.91;66.87
19736;BME280;32064;49.310;8.646;2023-05-03T03:06:11;101445.03;;;10.90;67.28
19736;BME280;32064;49.310;8.646;2023-05-03T03:08:37;101438.94;;;10.89;67.03
19736;BME280;32064;49.310;8.646;2023-05-03T03:11:03;101451.34;;;10.87;68.07
19736;BME280;32064;49.310;8.646;2023-05-03T03:13:29;101455.22;;;10.80;67.94
19736;BME280;32064;49.310;8.646;2023-05-03T03:15:54;101451.66;;;10.81;67.96
19736;BME280;32064;49.310;8.646;2023-05-03T03:18:20;101448.34;;;10.77;68.15
19736;BME280;32064;49.310;8.646;2023-05-03T03:20:45;101449.19;;;10.78;68.33
19736;BME280;32064;49.310;8.646;2023-05-03T03:23:11;101452.69;;;10.78;68.21
19736;BME280;32064;49.310;8.646;2023-05-03T03:25:37;101453.38;;;10.82;67.57
19736;BME280;32064;49.310;8.646;2023-05-03T03:28:02;101458.72;;;10.81;67.87
19736;BME280;32064;49.310;8.646;2023-05-03T03:30:28;101454.38;;;10.79;68.16
19736;BME280;32064;49.310;8.646;2023-05-03T03:32:53;101449.03;;;10.81;67.08
19736;BME280;32064;49.310;8.646;2023-05-03T03:35:19;101456.19;;;10.79;68.06
19736;BME280;32064;49.310;8.646;2023-05-03T03:37:44;101446.56;;;10.78;68.05
19736;BME280;32064;49.310;8.646;2023-05-03T03:40:10;101445.72;;;10.77;68.11
19736;BME280;32064;49.310;8.646;2023-05-03T03:42:36;101442.19;;;10.78;68.12
19736;BME280;32064;49.310;8.646;2023-05-03T03:45:02;101443.69;;;10.83;68.37
19736;BME280;32064;49.310;8.646;2023-05-03T03:47:28;101446.38;;;10.81;68.61
19736;BME280;32064;49.310;8.646;2023-05-03T03:49:54;101446.31;;;10.83;68.12
19736;BME280;32064;49.310;8.646;2023-05-03T03:52:19;101449.28;;;10.76;67.45
19736;BME280;32064;49.310;8.646;2023-05-03T03:54:44;101443.09;;;10.77;68.21
19736;BME280;32064;49.310;8.646;2023-05-03T03:57:10;101449.03;;;10.81;68.65
19736;BME280;32064;49.310;8.646;2023-05-03T03:59:35;101448.13;;;10.82;68.62
19736;BME280;32064;49.310;8.646;2023-05-03T04:02:00;101443.94;;;10.78;67.84
19736;BME280;32064;49.310;8.646;2023-05-03T04:04:26;101449.13;;;10.79;67.18
19736;BME280;32064;49.310;8.646;2023-05-03T04:06:52;101447.28;;;10.82;68.30
19736;BME280;32064;49.310;8.646;2023-05-03T04:09:17;101441.22;;;10.79;68.95
19736;BME280;32064;49.310;8.646;2023-05-03T04:11:43;101439.84;;;10.72;66.92
19736;BME280;32064;49.310;8.646;2023-05-03T04:14:09;101437.16;;;10.74;67.37
19736;BME280;32064;49.310;8.646;2023-05-03T04:16:34;101455.63;;;10.72;67.45
19736;BME280;32064;49.310;8.646;2023-05-03T04:19:00;101454.91;;;10.70;68.83
19736;BME280;32064;49.310;8.646;2023-05-03T04:21:26;101440.78;;;10.71;68.89
19736;BME280;32064;49.310;8.646;2023-05-03T04:23:53;101442.75;;;10.68;67.24
19736;BME280;32064;49.310;8.646;2023-05-03T04:26:19;101454.97;;;10.69;68.00
19736;BME280;32064;49.310;8.646;2023-05-03T04:28:46;101453.34;;;10.66;68.22
19736;BME280;32064;49.310;8.646;2023-05-03T04:31:12;101458.94;;;10.60;69.61
19736;BME280;32064;49.310;8.646;2023-05-03T04:33:38;101460.38;;;10.66;69.51
19736;BME280;32064;49.310;8.646;2023-05-03T04:36:04;101455.06;;;10.67;68.81
19736;BME280;32064;49.310;8.646;2023-05-03T04:38:30;101463.88;;;10.66;68.88
19736;BME280;32064;49.310;8.646;2023-05-03T04:40:56;101470.13;;;10.64;68.15
19736;BME280;32064;49.310;8.646;2023-05-03T04:43:22;101463.19;;;10.63;68.05
19736;BME280;32064;49.310;8.646;2023-05-03T04:45:48;101473.22;;;10.72;68.16
19736;BME280;32064;49.310;8.646;2023-05-03T04:48:13;101474.06;;;10.72;68.72
19736;BME280;32064;49.310;8.646;2023-05-03T04:50:41;101467.03;;;10.73;68.55
19736;BME280;32064;49.310;8.646;2023-05-03T04:53:06;101474.00;;;10.74;68.76
19736;BME280;32064;49.310;8.646;2023-05-03T04:55:32;101473.75;;;10.78;69.99
19736;BME280;32064;49.310;8.646;2023-05-03T04:57:57;101481.22;;;10.86;68.62
19736;BME280;32064;49.310;8.646;2023-05-03T05:00:22;101472.75;;;10.97;69.49
19736;BME280;32064;49.310;8.646;2023-05-03T05:02:49;101467.66;;;10.94;67.96
19736;BME280;32064;49.310;8.646;2023-05-03T05:05:15;101468.25;;;10.99;69.97
19736;BME280;32064;49.310;8.646;2023-05-03T05:07:41;101471.56;;;11.02;68.58
19736;BME280;32064;49.310;8.646;2023-05-03T05:10:07;101476.84;;;11.02;68.23
19736;BME280;32064;49.310;8.646;2023-05-03T05:12:32;101464.34;;;11.06;68.88
19736;BME280;32064;49.310;8.646;2023-05-03T05:14:58;101464.53;;;11.19;68.63
19736;BME280;32064;49.310;8.646;2023-05-03T05:17:23;101469.88;;;11.33;68.99
19736;BME280;32064;49.310;8.646;2023-05-03T05:19:50;101469.78;;;11.35;69.32
19736;BME280;32064;49.310;8.646;2023-05-03T05:22:16;101470.13;;;11.44;67.67
19736;BME280;32064;49.310;8.646;2023-05-03T05:24:41;101470.97;;;11.45;67.98
19736;BME280;32064;49.310;8.646;2023-05-03T05:27:07;101467.06;;;11.52;68.07
19736;BME280;32064;49.310;8.646;2023-05-03T05:29:32;101475.22;;;11.63;68.77
19736;BME280;32064;49.310;8.646;2023-05-03T05:31:57;101476.69;;;11.83;67.84
19736;BME280;32064;49.310;8.646;2023-05-03T05:34:24;101484.00;;;11.94;66.91
19736;BME280;32064;49.310;8.646;2023-05-03T05:36:50;101482.53;;;12.04;66.94
19736;BME280;32064;49.310;8.646;2023-05-03T05:39:16;101479.91;;;12.19;66.63
19736;BME280;32064;49.310;8.646;2023-05-03T05:41:41;101480.53;;;12.38;67.39
19736;BME280;32064;49.310;8.646;2023-05-03T05:44:07;101482.16;;;12.55;66.52
19736;BME280;32064;49.310;8.646;2023-05-03T05:46:32;101479.13;;;12.61;65.76
19736;BME280;32064;49.310;8.646;2023-05-03T05:48:57;101483.56;;;12.61;67.29
19736;BME280;32064;49.310;8.646;2023-05-03T05:51:23;101487.81;;;12.63;66.74
19736;BME280;32064;49.310;8.646;2023-05-03T05:53:48;101489.50;;;12.64;65.62
19736;BME280;32064;49.310;8.646;2023-05-03T05:56:14;101481.69;;;12.77;66.62
19736;BME280;32064;49.310;8.646;2023-05-03T05:58:39;101487.69;;;12.93;66.54
19736;BME280;32064;49.310;8.646;2023-05-03T06:01:05;101480.03;;;13.17;64.94
19736;BME280;32064;49.310;8.646;2023-05-03T06:03:32;101482.56;;;13.33;64.99
19736;BME280;32064;49.310;8.646;2023-05-03T06:05:58;101479.50;;;13.54;64.00
19736;BME280;32064;49.310;8.646;2023-05-03T06:08:23;101479.78;;;13.76;64.28
19736;BME280;32064;49.310;8.646;2023-05-03T06:10:48;101490.72;;;13.84;64.15
19736;BME280;32064;49.310;8.646;2023-05-03T06:13:14;101485.84;;;14.04;63.75
19736;BME280;32064;49.310;8.646;2023-05-03T06:15:40;101489.50;;;14.15;63.80
19736;BME280;32064;49.310;8.646;2023-05-03T06:18:05;101477.31;;;14.26;63.54
19736;BME280;32064;49.310;8.646;2023-05-03T06:20:31;101478.50;;;14.34;63.27
19736;BME280;32064;49.310;8.646;2023-05-03T06:22:56;101481.59;;;14.41;62.33
19736;BME280;32064;49.310;8.646;2023-05-03T06:25:21;101470.25;;;14.52;62.31
19736;BME280;32064;49.310;8.646;2023-05-03T06:27:47;101476.22;;;14.55;61.91
19736;BME280;32064;49.310;8.646;2023-05-03T06:30:12;101481.88;;;14.36;61.81
19736;BME280;32064;49.310;8.646;2023-05-03T06:32:38;101473.94;;;14.36;62.04
19736;BME280;32064;49.310;8.646;2023-05-03T06:35:07;101485.47;;;14.48;61.72
19736;BME280;32064;49.310;8.646;2023-05-03T06:37:34;101483.38;;;14.66;61.24
19736;BME280;32064;49.310;8.646;2023-05-03T06:40:00;101482.59;;;15.02;60.98
19736;BME280;32064;49.310;8.646;2023-05-03T06:42:25;101479.97;;;15.63;59.74
19736;BME280;32064;49.310;8.646;2023-05-03T06:44:51;101478.78;;;15.91;60.06
19736;BME280;32064;49.310;8.646;2023-05-03T06:47:17;101473.41;;;16.15;59.64
19736;BME280;32064;49.310;8.646;2023-05-03T06:49:44;101472.34;;;15.83;60.08
19736;BME280;32064;49.310;8.646;2023-05-03T06:52:10;101467.31;;;15.67;59.69
19736;BME280;32064;49.310;8.646;2023-05-03T06:54:35;101465.09;;;15.85;59.24
19736;BME280;32064;49.310;8.646;2023-05-03T06:57:01;101463.50;;;16.06;57.89
19736;BME280;32064;49.310;8.646;2023-05-03T06:59:26;101464.81;;;16.81;58.08
19736;BME280;32064;49.310;8.646;2023-05-03T07:01:52;101468.66;;;18.28;53.25
19736;BME280;32064;49.310;8.646;2023-05-03T07:04:17;101463.38;;;18.90;51.67
19736;BME280;32064;49.310;8.646;2023-05-03T07:06:43;101462.44;;;18.70;52.90
19736;BME280;32064;49.310;8.646;2023-05-03T07:09:08;101470.28;;;19.62;51.24
19736;BME280;32064;49.310;8.646;2023-05-03T07:11:34;101474.97;;;22.36;45.67
19736;BME280;32064;49.310;8.646;2023-05-03T07:14:02;101470.22;;;22.04;46.85
19736;BME280;32064;49.310;8.646;2023-05-03T07:16:27;101468.94;;;21.08;48.84
19736;BME280;32064;49.310;8.646;2023-05-03T07:18:53;101468.44;;;20.11;50.78
19736;BME280;32064;49.310;8.646;2023-05-03T07:21:18;101461.13;;;19.55;51.97
19736;BME280;32064;49.310;8.646;2023-05-03T07:23:44;101461.97;;;19.45;52.12
19736;BME280;32064;49.310;8.646;2023-05-03T07:26:09;101465.69;;;20.50;50.10
19736;BME280;32064;49.310;8.646;2023-05-03T07:28:35;101453.50;;;20.28;49.99
19736;BME280;32064;49.310;8.646;2023-05-03T07:31:02;101455.88;;;20.21;50.50
19736;BME280;32064;49.310;8.646;2023-05-03T07:33:29;101454.47;;;20.27;50.13
19736;BME280;32064;49.310;8.646;2023-05-03T07:35:54;101456.13;;;20.84;48.84
19736;BME280;32064;49.310;8.646;2023-05-03T07:38:20;101451.22;;;21.07;48.66
19736;BME280;32064;49.310;8.646;2023-05-03T07:40:45;101449.03;;;20.18;50.55
19736;BME280;32064;49.310;8.646;2023-05-03T07:43:10;101445.97;;;19.84;50.85
19736;BME280;32064;49.310;8.646;2023-05-03T07:45:37;101445.25;;;19.63;51.50
19736;BME280;32064;49.310;8.646;2023-05-03T07:48:03;101449.16;;;19.29;51.57
19736;BME280;32064;49.310;8.646;2023-05-03T07:50:28;101446.00;;;19.05;51.59
19736;BME280;32064;49.310;8.646;2023-05-03T07:52:54;101452.72;;;18.90;52.82
19736;BME280;32064;49.310;8.646;2023-05-03T07:55:20;101449.44;;;18.76;51.57
19736;BME280;32064;49.310;8.646;2023-05-03T07:57:46;101450.78;;;18.71;51.96
19736;BME280;32064;49.310;8.646;2023-05-03T08:00:12;101444.00;;;18.57;53.41
19736;BME280;32064;49.310;8.646;2023-05-03T08:02:38;101450.66;;;18.42;53.14
19736;BME280;32064;49.310;8.646;2023-05-03T08:05:03;101458.47;;;18.33;52.64
19736;BME280;32064;49.310;8.646;2023-05-03T08:07:30;101457.00;;;18.50;52.59
19736;BME280;32064;49.310;8.646;2023-05-03T08:09:55;101461.81;;;18.56;53.04
19736;BME280;32064;49.310;8.646;2023-05-03T08:12:23;101454.81;;;18.65;52.75
19736;BME280;32064;49.310;8.646;2023-05-03T08:14:51;101466.81;;;18.40;52.38
19736;BME280;32064;49.310;8.646;2023-05-03T08:17:17;101462.75;;;18.46;53.38
19736;BME280;32064;49.310;8.646;2023-05-03T08:19:43;101462.97;;;18.63;52.06
19736;BME280;32064;49.310;8.646;2023-05-03T08:22:08;101468.34;;;18.73;52.39
19736;BME280;32064;49.310;8.646;2023-05-03T08:24:37;101464.50;;;18.87;53.13
19736;BME280;32064;49.310;8.646;2023-05-03T08:27:02;101469.34;;;19.03;51.52
19736;BME280;32064;49.310;8.646;2023-05-03T08:29:28;101469.06;;;19.16;52.19
19736;BME280;32064;49.310;8.646;2023-05-03T08:31:53;101471.25;;;19.90;50.27
19736;BME280;32064;49.310;8.646;2023-05-03T08:34:19;101475.59;;;20.20;50.05
19736;BME280;32064;49.310;8.646;2023-05-03T08:36:44;101472.47;;;22.34;46.52
19736;BME280;32064;49.310;8.646;2023-05-03T08:39:09;101461.91;;;22.67;46.24
19736;BME280;32064;49.310;8.646;2023-05-03T08:41:35;101465.03;;;24.54;42.80
19736;BME280;32064;49.310;8.646;2023-05-03T08:44:01;101461.25;;;24.71;42.82
19736;BME280;32064;49.310;8.646;2023-05-03T08:46:29;101454.47;;;24.92;42.86
19736;BME280;32064;49.310;8.646;2023-05-03T08:48:59;101455.63;;;24.33;43.91
19736;BME280;32064;49.310;8.646;2023-05-03T08:51:25;101455.94;;;25.57;41.98
19736;BME280;32064;49.310;8.646;2023-05-03T08:53:51;101462.22;;;26.10;41.26
19736;BME280;32064;49.310;8.646;2023-05-03T08:56:28;101452.69;;;27.33;38.96
19736;BME280;32064;49.310;8.646;2023-05-03T08:58:54;101450.66;;;27.35;39.86
19736;BME280;32064;49.310;8.646;2023-05-03T09:01:20;101448.78;;;26.69;40.42
19736;BME280;32064;49.310;8.646;2023-05-03T09:03:49;101454.00;;;27.80;38.23
19736;BME280;32064;49.310;8.646;2023-05-03T09:06:22;101453.28;;;28.49;37.77
19736;BME280;32064;49.310;8.646;2023-05-03T09:08:50;101455.69;;;28.72;36.80
19736;BME280;32064;49.310;8.646;2023-05-03T09:13:48;101457.19;;;30.42;35.60
19736;BME280;32064;49.310;8.646;2023-05-03T09:16:24;101446.34;;;30.94;33.99
19736;BME280;32064;49.310;8.646;2023-05-03T09:19:01;101450.09;;;30.34;33.79
19736;BME280;32064;49.310;8.646;2023-05-03T09:21:27;101450.72;;;30.16;35.01
19736;BME280;32064;49.310;8.646;2023-05-03T09:23:53;101451.00;;;30.73;34.09
19736;BME280;32064;49.310;8.646;2023-05-03T09:26:33;101450.13;;;31.31;31.27
19736;BME280;32064;49.310;8.646;2023-05-03T09:29:00;101454.16;;;31.85;32.72
19736;BME280;32064;49.310;8.646;2023-05-03T09:31:27;101446.81;;;32.11;32.69
19736;BME280;32064;49.310;8.646;2023-05-03T09:33:52;101446.75;;;32.36;31.61
19736;BME280;32064;49.310;8.646;2023-05-03T09:36:18;101437.69;;;32.79;31.62
19736;BME280;32064;49.310;8.646;2023-05-03T09:38:43;101438.97;;;33.06;30.55
19736;BME280;32064;49.310;8.646;2023-05-03T09:41:09;101430.53;;;32.78;31.44
19736;BME280;32064;49.310;8.646;2023-05-03T09:43:35;101443.72;;;33.29;31.53
19736;BME280;32064;49.310;8.646;2023-05-03T09:46:12;101433.69;;;33.65;30.44
19736;BME280;32064;49.310;8.646;2023-05-03T09:48:39;101426.38;;;32.75;29.93
19736;BME280;32064;49.310;8.646;2023-05-03T09:51:04;101425.84;;;32.85;30.30
19736;BME280;32064;49.310;8.646;2023-05-03T09:53:35;101430.06;;;32.99;30.45
19736;BME280;32064;49.310;8.646;2023-05-03T09:56:18;101430.16;;;33.23;29.87
19736;BME280;32064;49.310;8.646;2023-05-03T09:58:46;101424.44;;;33.54;30.62
19736;BME280;32064;49.310;8.646;2023-05-03T10:01:13;101424.00;;;33.69;29.32
19736;BME280;32064;49.310;8.646;2023-05-03T10:03:41;101415.03;;;33.50;29.48
19736;BME280;32064;49.310;8.646;2023-05-03T10:06:23;101419.16;;;33.41;29.34
19736;BME280;32064;49.310;8.646;2023-05-03T10:09:09;101413.03;;;33.04;29.68
19736;BME280;32064;49.310;8.646;2023-05-03T10:11:42;101411.16;;;33.82;29.19
19736;BME280;32064;49.310;8.646;2023-05-03T10:14:09;101416.28;;;33.90;29.15
19736;BME280;32064;49.310;8.646;2023-05-03T10:16:41;101414.84;;;34.34;29.06
19736;BME280;32064;49.310;8.646;2023-05-03T10:19:33;101410.84;;;34.66;27.83
19736;BME280;32064;49.310;8.646;2023-05-03T10:22:02;101410.25;;;34.52;28.62
19736;BME280;32064;49.310;8.646;2023-05-03T10:24:30;101398.53;;;34.80;28.90
19736;BME280;32064;49.310;8.646;2023-05-03T10:26:55;101395.03;;;34.96;28.38
19736;BME280;32064;49.310;8.646;2023-05-03T10:32:02;101389.13;;;35.04;28.31
19736;BME280;32064;49.310;8.646;2023-05-03T10:34:33;101377.28;;;34.30;27.30
19736;BME280;32064;49.310;8.646;2023-05-03T10:37:06;101379.34;;;34.63;27.86
19736;BME280;32064;49.310;8.646;2023-05-03T10:39:32;101378.63;;;34.84;28.17
19736;BME280;32064;49.310;8.646;2023-05-03T10:42:01;101377.25;;;34.99;27.23
19736;BME280;32064;49.310;8.646;2023-05-03T10:49:39;101358.75;;;35.18;27.88
19736;BME280;32064;49.310;8.646;2023-05-03T10:54:59;101361.66;;;34.54;26.90
19736;BME280;32064;49.310;8.646;2023-05-03T10:57:26;101354.63;;;33.94;27.16
19736;BME280;32064;49.310;8.646;2023-05-03T10:59:54;101342.94;;;33.04;28.42
19736;BME280;32064;49.310;8.646;2023-05-03T11:02:26;101339.53;;;33.33;27.14
19736;BME280;32064;49.310;8.646;2023-05-03T11:04:55;101346.44;;;33.70;27.52
19736;BME280;32064;49.310;8.646;2023-05-03T11:07:23;101343.69;;;33.94;26.96
19736;BME280;32064;49.310;8.646;2023-05-03T11:09:48;101346.53;;;33.99;27.01
19736;BME280;32064;49.310;8.646;2023-05-03T11:12:14;101339.75;;;34.02;27.44
19736;BME280;32064;49.310;8.646;2023-05-03T11:14:41;101341.22;;;34.45;27.51
19736;BME280;32064;49.310;8.646;2023-05-03T11:17:06;101335.38;;;34.01;26.69
19736;BME280;32064;49.310;8.646;2023-05-03T11:19:32;101335.41;;;33.89;25.93
19736;BME280;32064;49.310;8.646;2023-05-03T11:21:58;101340.56;;;33.20;26.70
19736;BME280;32064;49.310;8.646;2023-05-03T11:24:26;101331.81;;;32.09;27.29
19736;BME280;32064;49.310;8.646;2023-05-03T11:26:51;101330.13;;;32.26;28.50
19736;BME280;32064;49.310;8.646;2023-05-03T11:29:16;101333.16;;;31.56;28.60
19736;BME280;32064;49.310;8.646;2023-05-03T11:31:43;101326.34;;;30.52;28.89
19736;BME280;32064;49.310;8.646;2023-05-03T11:34:10;101324.44;;;29.94;29.32
19736;BME280;32064;49.310;8.646;2023-05-03T11:36:35;101314.91;;;29.25;29.96
19736;BME280;32064;49.310;8.646;2023-05-03T11:39:01;101309.00;;;29.01;30.15
19736;BME280;32064;49.310;8.646;2023-05-03T11:41:29;101319.00;;;28.94;29.65
19736;BME280;32064;49.310;8.646;2023-05-03T11:43:56;101316.53;;;28.31;29.65
19736;BME280;32064;49.310;8.646;2023-05-03T11:46:23;101313.06;;;27.74;30.77
19736;BME280;32064;49.310;8.646;2023-05-03T11:48:50;101309.72;;;27.16;30.56
19736;BME280;32064;49.310;8.646;2023-05-03T11:51:20;101309.97;;;27.49;30.49
19736;BME280;32064;49.310;8.646;2023-05-03T11:53:46;101295.28;;;27.93;30.02
19736;BME280;32064;49.310;8.646;2023-05-03T11:56:12;101294.97;;;27.75;29.82
19736;BME280;32064;49.310;8.646;2023-05-03T11:58:53;101286.50;;;27.28;29.96
19736;BME280;32064;49.310;8.646;2023-05-03T12:01:23;101293.66;;;27.36;29.76
19736;BME280;32064;49.310;8.646;2023-05-03T12:03:53;101289.31;;;27.70;31.51
19736;BME280;32064;49.310;8.646;2023-05-03T12:06:19;101280.28;;;27.56;31.08
19736;BME280;32064;49.310;8.646;2023-05-03T12:08:45;101275.13;;;27.61;31.23
19736;BME280;32064;49.310;8.646;2023-05-03T12:11:11;101282.44;;;27.39;31.53
19736;BME280;32064;49.310;8.646;2023-05-03T12:13:37;101280.91;;;27.58;31.24
19736;BME280;32064;49.310;8.646;2023-05-03T12:16:04;101279.06;;;27.65;31.75
19736;BME280;32064;49.310;8.646;2023-05-03T12:18:50;101279.94;;;27.38;32.18
19736;BME280;32064;49.310;8.646;2023-05-03T12:21:21;101275.13;;;27.61;33.01
19736;BME280;32064;49.310;8.646;2023-05-03T12:23:47;101280.16;;;27.71;33.04
19736;BME280;32064;49.310;8.646;2023-05-03T12:26:18;101274.47;;;27.94;32.25
19736;BME280;32064;49.310;8.646;2023-05-03T12:28:47;101272.81;;;27.30;32.97
19736;BME280;32064;49.310;8.646;2023-05-03T12:31:13;101268.84;;;26.83;33.54
19736;BME280;32064;49.310;8.646;2023-05-03T12:33:39;101258.53;;;26.35;33.35
19736;BME280;32064;49.310;8.646;2023-05-03T12:36:05;101260.28;;;26.22;32.47
19736;BME280;32064;49.310;8.646;2023-05-03T12:38:32;101257.59;;;26.43;32.01
19736;BME280;32064;49.310;8.646;2023-05-03T12:40:57;101250.06;;;26.53;32.46
19736;BME280;32064;49.310;8.646;2023-05-03T12:43:24;101244.72;;;26.60;31.96
19736;BME280;32064;49.310;8.646;2023-05-03T12:45:50;101260.03;;;26.74;32.29
19736;BME280;32064;49.310;8.646;2023-05-03T12:48:15;101241.44;;;26.86;31.47
19736;BME280;32064;49.310;8.646;2023-05-03T12:50:41;101237.38;;;26.97;31.11
19736;BME280;32064;49.310;8.646;2023-05-03T12:53:06;101245.19;;;26.85;31.75
19736;BME280;32064;49.310;8.646;2023-05-03T12:55:32;101238.03;;;26.77;31.80
19736;BME280;32064;49.310;8.646;2023-05-03T12:57:59;101234.09;;;27.01;31.23
19736;BME280;32064;49.310;8.646;2023-05-03T13:00:25;101232.25;;;27.02;31.22
19736;BME280;32064;49.310;8.646;2023-05-03T13:02:51;101229.72;;;27.00;32.00
19736;BME280;32064;49.310;8.646;2023-05-03T13:05:17;101235.97;;;27.01;31.92